createdAt,value
2023-01-29T00:02:09.664Z,54.83
2023-01-29T00:04:36.569Z,54.96
2023-01-29T00:07:03.443Z,55.56
2023-01-29T00:09:31.394Z,55.80
2023-01-29T00:11:58.433Z,55.47
2023-01-29T00:14:27.206Z,55.79
2023-01-29T00:16:54.904Z,55.44
2023-01-29T00:19:21.792Z,56.11
2023-01-29T00:21:48.653Z,56.33
2023-01-29T00:24:15.553Z,56.69
2023-01-29T00:26:43.112Z,56.93
2023-01-29T00:29:10.121Z,56.59
2023-01-29T00:31:37.047Z,56.94
2023-01-29T00:34:03.980Z,56.92
2023-01-29T00:36:30.857Z,57.10
2023-01-29T00:39:00.600Z,57.37
2023-01-29T00:41:49.822Z,57.50
2023-01-29T00:44:35.411Z,57.57
2023-01-29T00:47:03.682Z,57.17
2023-01-29T00:49:30.626Z,57.35
2023-01-29T00:52:17.513Z,57.82
2023-01-29T00:54:44.374Z,57.36
2023-01-29T00:57:11.260Z,58.14
2023-01-29T00:59:38.322Z,57.88
2023-01-29T01:02:24.006Z,57.99
2023-01-29T01:04:50.956Z,58.02
2023-01-29T01:07:17.883Z,58.29
2023-01-29T01:10:03.077Z,58.75
2023-01-29T01:12:30.662Z,58.65
2023-01-29T01:14:57.770Z,58.48
2023-01-29T01:17:25.132Z,58.79
2023-01-29T01:19:52.132Z,59.22
2023-01-29T01:22:19.166Z,58.92
2023-01-29T01:24:46.028Z,59.40
2023-01-29T01:27:13.227Z,59.01
2023-01-29T01:29:40.679Z,59.47
2023-01-29T01:32:07.942Z,59.11
2023-01-29T01:34:34.865Z,59.20
2023-01-29T01:37:01.721Z,59.05
2023-01-29T01:39:28.721Z,59.19
2023-01-29T01:41:56.598Z,59.28
2023-01-29T01:44:55.261Z,59.46
2023-01-29T01:47:46.422Z,59.47
2023-01-29T01:50:28.303Z,59.52
2023-01-29T01:53:05.117Z,59.60
2023-01-29T01:55:34.324Z,59.35
2023-01-29T01:58:12.995Z,59.67
2023-01-29T02:00:40.696Z,59.90
2023-01-29T02:03:27.570Z,59.72
2023-01-29T02:06:15.928Z,60.03
2023-01-29T02:09:11.886Z,60.23
2023-01-29T02:11:38.983Z,60.02
2023-01-29T02:14:06.592Z,60.63
2023-01-29T02:16:36.285Z,60.50
2023-01-29T02:19:11.040Z,60.30
2023-01-29T02:22:00.825Z,60.58
2023-01-29T02:25:23.296Z,60.09
2023-01-29T02:28:07.113Z,60.92
2023-01-29T02:31:09.666Z,60.86
2023-01-29T02:34:18.626Z,60.50
2023-01-29T02:37:09.809Z,60.65
2023-01-29T02:40:25.536Z,61.21
2023-01-29T02:43:27.438Z,61.48
2023-01-29T02:46:06.632Z,61.07
2023-01-29T02:48:50.223Z,61.70
2023-01-29T02:51:44.266Z,61.19
2023-01-29T02:54:23.758Z,61.59
2023-01-29T02:57:01.246Z,61.44
2023-01-29T02:59:54.236Z,61.51
2023-01-29T03:02:36.051Z,61.41
2023-01-29T03:05:08.605Z,61.38
2023-01-29T03:07:42.564Z,62.08
2023-01-29T03:10:44.205Z,61.83
2023-01-29T03:13:21.003Z,61.93
2023-01-29T03:16:01.412Z,61.59
2023-01-29T03:18:46.919Z,61.91
2023-01-29T03:21:44.641Z,61.75
2023-01-29T03:24:34.178Z,62.23
2023-01-29T03:27:24.171Z,62.17
2023-01-29T03:30:11.952Z,62.15
2023-01-29T03:32:49.609Z,62.24
2023-01-29T03:35:36.712Z,62.39
2023-01-29T03:38:10.119Z,62.52
2023-01-29T03:40:53.566Z,62.42
2023-01-29T03:43:40.343Z,62.71
2023-01-29T03:46:58.657Z,62.75
2023-01-29T03:50:09.009Z,62.83
2023-01-29T03:52:56.685Z,63.14
2023-01-29T03:55:40.687Z,62.56
2023-01-29T03:58:25.760Z,62.62
2023-01-29T04:01:03.520Z,62.82
2023-01-29T04:04:09.217Z,62.91
2023-01-29T04:06:39.023Z,62.59
2023-01-29T04:09:22.128Z,62.91
2023-01-29T04:12:11.663Z,63.11
2023-01-29T04:14:42.429Z,62.92
2023-01-29T04:17:24.007Z,62.91
2023-01-29T04:20:11.319Z,63.02
2023-01-29T04:22:44.949Z,62.95
2023-01-29T04:25:17.743Z,62.55
2023-01-29T04:28:19.322Z,63.00
2023-01-29T04:31:08.536Z,62.62
2023-01-29T04:33:53.286Z,62.59
2023-01-29T04:37:00.557Z,63.05
2023-01-29T04:39:46.720Z,62.50
2023-01-29T04:42:39.282Z,62.67
2023-01-29T04:45:32.409Z,62.98
2023-01-29T04:48:52.483Z,62.72
2023-01-29T04:51:43.634Z,62.78
2023-01-29T04:54:22.990Z,62.65
2023-01-29T04:57:19.461Z,62.62
2023-01-29T04:59:55.330Z,62.52
2023-01-29T05:02:24.548Z,62.79
2023-01-29T05:04:52.464Z,62.74
2023-01-29T05:07:20.840Z,62.85
2023-01-29T05:09:48.544Z,63.38
2023-01-29T05:12:17.503Z,63.61
2023-01-29T05:14:46.750Z,63.72
2023-01-29T05:17:20.213Z,63.79
2023-01-29T05:19:47.689Z,63.38
2023-01-29T05:22:18.403Z,63.83
2023-01-29T05:24:46.537Z,63.77
2023-01-29T05:27:40.322Z,63.90
2023-01-29T05:30:08.416Z,63.67
2023-01-29T05:32:35.299Z,63.52
2023-01-29T05:35:02.196Z,64.04
2023-01-29T05:37:29.084Z,64.08
2023-01-29T05:39:55.954Z,63.93
2023-01-29T05:42:22.855Z,64.15
2023-01-29T05:44:49.855Z,63.91
2023-01-29T05:47:21.141Z,63.73
2023-01-29T05:49:48.093Z,63.78
2023-01-29T05:52:14.991Z,63.75
2023-01-29T05:54:41.885Z,63.94
2023-01-29T05:57:08.781Z,63.62
2023-01-29T05:59:35.652Z,64.17
2023-01-29T06:02:02.568Z,63.79
2023-01-29T06:04:29.462Z,64.14
2023-01-29T06:06:56.372Z,64.35
2023-01-29T06:09:23.246Z,64.21
2023-01-29T06:11:50.176Z,63.83
2023-01-29T06:14:17.080Z,64.04
2023-01-29T06:16:43.977Z,63.88
2023-01-29T06:19:10.849Z,63.80
2023-01-29T06:21:37.766Z,64.00
2023-01-29T06:24:05.033Z,63.98
2023-01-29T06:26:31.967Z,64.28
2023-01-29T06:28:58.839Z,64.20
2023-01-29T06:31:37.950Z,64.04
2023-01-29T06:34:07.520Z,64.26
2023-01-29T06:36:35.840Z,64.23
2023-01-29T06:39:03.312Z,64.08
2023-01-29T06:41:30.302Z,64.31
2023-01-29T06:43:57.187Z,64.29
2023-01-29T06:46:24.074Z,64.20
2023-01-29T06:48:50.964Z,64.48
2023-01-29T06:51:18.100Z,64.60
2023-01-29T06:53:46.419Z,64.56
2023-01-29T06:56:13.584Z,64.31
2023-01-29T06:58:40.483Z,64.00
2023-01-29T07:01:17.534Z,64.49
2023-01-29T07:03:52.216Z,64.45
2023-01-29T07:06:19.473Z,64.64
2023-01-29T07:08:46.423Z,64.52
2023-01-29T07:11:13.375Z,64.69
2023-01-29T07:13:40.250Z,64.72
2023-01-29T07:16:07.539Z,64.37
2023-01-29T07:18:34.477Z,64.61
2023-01-29T07:21:06.343Z,64.79
2023-01-29T07:23:34.963Z,64.92
2023-01-29T07:26:06.146Z,64.42
2023-01-29T07:28:37.871Z,64.61
2023-01-29T07:31:05.197Z,64.60
2023-01-29T07:33:32.124Z,64.74
2023-01-29T07:35:59.031Z,64.38
2023-01-29T07:38:26.161Z,64.51
2023-01-29T07:40:53.313Z,64.57
2023-01-29T07:43:20.787Z,64.57
2023-01-29T07:45:47.720Z,64.64
2023-01-29T07:48:14.605Z,64.53
2023-01-29T07:50:41.584Z,64.28
2023-01-29T07:53:15.066Z,64.62
2023-01-29T07:55:45.332Z,64.76
2023-01-29T07:58:12.486Z,64.80
2023-01-29T08:00:39.867Z,65.01
2023-01-29T08:03:12.222Z,64.64
2023-01-29T08:05:39.116Z,64.94
2023-01-29T08:08:07.641Z,64.80
2023-01-29T08:10:36.335Z,64.78
2023-01-29T08:13:05.412Z,64.65
2023-01-29T08:15:33.768Z,64.70
2023-01-29T08:18:03.361Z,64.53
2023-01-29T08:20:30.761Z,64.60
2023-01-29T08:23:07.826Z,64.85
2023-01-29T08:25:35.930Z,64.30
2023-01-29T08:28:04.575Z,64.71
2023-01-29T08:30:34.718Z,64.64
2023-01-29T08:33:04.130Z,64.71
2023-01-29T08:35:31.119Z,65.14
2023-01-29T08:38:03.411Z,64.69
2023-01-29T08:40:33.994Z,64.97
2023-01-29T08:43:05.572Z,64.79
2023-01-29T08:45:36.613Z,64.80
2023-01-29T08:48:03.827Z,64.78
2023-01-29T08:50:31.851Z,64.60
2023-01-29T08:52:59.713Z,64.71
2023-01-29T08:55:27.427Z,64.69
2023-01-29T08:57:54.873Z,64.80
2023-01-29T09:00:22.077Z,64.60
2023-01-29T09:02:49.077Z,64.82
2023-01-29T09:05:16.213Z,64.62
2023-01-29T09:07:43.232Z,64.70
2023-01-29T09:10:12.107Z,64.67
2023-01-29T09:12:39.011Z,64.64
2023-01-29T09:15:06.460Z,64.70
2023-01-29T09:17:33.340Z,64.69
2023-01-29T09:20:00.225Z,64.65
2023-01-29T09:22:27.184Z,64.39
2023-01-29T09:24:54.085Z,64.28
2023-01-29T09:27:21.024Z,64.41
2023-01-29T09:29:47.921Z,64.57
2023-01-29T09:32:16.852Z,64.28
2023-01-29T09:34:46.519Z,64.46
2023-01-29T09:37:13.433Z,64.67
2023-01-29T09:39:40.341Z,64.65
2023-01-29T09:42:23.128Z,64.68
2023-01-29T09:45:06.834Z,64.74
2023-01-29T09:47:36.119Z,64.57
2023-01-29T09:50:08.264Z,64.59
2023-01-29T09:52:46.067Z,64.58
2023-01-29T09:55:46.502Z,64.74
2023-01-29T09:58:28.051Z,64.59
2023-01-29T10:01:04.490Z,64.69
2023-01-29T10:03:53.885Z,64.98
2023-01-29T10:06:53.720Z,64.81
2023-01-29T10:10:04.225Z,64.75
2023-01-29T10:12:43.141Z,64.73
2023-01-29T10:15:25.012Z,64.89
2023-01-29T10:18:04.890Z,64.80
2023-01-29T10:20:59.058Z,64.70
2023-01-29T10:23:34.571Z,64.54
2023-01-29T10:26:02.265Z,64.38
2023-01-29T10:28:43.149Z,64.46
2023-01-29T10:31:25.481Z,64.30
2023-01-29T10:34:02.784Z,64.19
2023-01-29T10:36:43.428Z,63.83
2023-01-29T10:39:26.215Z,64.03
2023-01-29T10:42:28.105Z,63.98
2023-01-29T10:45:34.784Z,63.73
2023-01-29T10:48:09.692Z,63.84
2023-01-29T10:50:50.960Z,63.82
2023-01-29T10:53:41.321Z,63.77
2023-01-29T10:56:58.569Z,63.90
2023-01-29T10:59:52.202Z,63.80
2023-01-29T11:02:22.056Z,63.50
2023-01-29T11:04:49.334Z,63.52
2023-01-29T11:07:19.812Z,63.01
2023-01-29T11:10:08.431Z,62.83
2023-01-29T11:12:38.237Z,62.86
2023-01-29T11:15:21.014Z,62.84
2023-01-29T11:18:14.174Z,62.64
2023-01-29T11:20:44.610Z,62.45
2023-01-29T11:23:33.502Z,62.49
2023-01-29T11:26:01.684Z,62.04
2023-01-29T11:28:43.874Z,62.10
2023-01-29T11:31:27.487Z,61.53
2023-01-29T11:34:04.418Z,61.68
2023-01-29T11:36:39.636Z,61.69
2023-01-29T11:39:22.131Z,61.83
2023-01-29T11:41:50.549Z,61.66
2023-01-29T11:44:22.723Z,61.68
2023-01-29T11:46:50.216Z,61.39
2023-01-29T11:49:33.970Z,61.27
2023-01-29T11:52:08.286Z,61.29
2023-01-29T11:54:44.965Z,61.11
2023-01-29T11:57:39.066Z,61.26
2023-01-29T12:00:28.618Z,60.81
2023-01-29T12:03:23.239Z,61.11
2023-01-29T12:06:05.959Z,60.93
2023-01-29T12:08:38.228Z,60.80
2023-01-29T12:11:15.991Z,60.93
2023-01-29T12:13:45.883Z,60.99
2023-01-29T12:16:24.605Z,60.71
2023-01-29T12:19:17.202Z,60.73
2023-01-29T12:21:52.578Z,60.62
2023-01-29T12:24:54.556Z,60.61
2023-01-29T12:27:39.457Z,60.55
2023-01-29T12:30:19.960Z,60.57
2023-01-29T12:33:17.609Z,60.53
2023-01-29T12:35:59.811Z,60.49
2023-01-29T12:38:26.798Z,60.43
2023-01-29T12:41:00.687Z,60.57
2023-01-29T12:43:45.126Z,60.72
2023-01-29T12:46:24.542Z,60.13
2023-01-29T12:48:54.949Z,59.98
2023-01-29T12:51:36.341Z,59.85
2023-01-29T12:54:20.065Z,59.92
2023-01-29T12:56:51.785Z,60.03
2023-01-29T12:59:28.921Z,59.87
2023-01-29T13:02:15.925Z,59.71
2023-01-29T13:04:49.826Z,60.16
2023-01-29T13:07:26.276Z,59.67
2023-01-29T13:10:04.531Z,59.81
2023-01-29T13:12:33.316Z,59.92
2023-01-29T13:15:24.126Z,59.97
2023-01-29T13:18:03.015Z,60.07
2023-01-29T13:20:34.014Z,60.16
2023-01-29T13:23:22.290Z,59.95
2023-01-29T13:25:52.729Z,60.05
2023-01-29T13:28:24.196Z,60.36
2023-01-29T13:31:11.138Z,60.25
2023-01-29T13:33:40.904Z,60.23
2023-01-29T13:36:17.168Z,60.15
2023-01-29T13:38:45.175Z,60.35
2023-01-29T13:41:12.526Z,60.21
2023-01-29T13:43:42.870Z,60.39
2023-01-29T13:46:21.425Z,60.53
2023-01-29T13:48:50.930Z,60.42
2023-01-29T13:51:22.187Z,60.53
2023-01-29T13:53:58.086Z,60.72
2023-01-29T13:56:33.551Z,60.82
2023-01-29T13:59:04.091Z,60.82
2023-01-29T14:01:49.279Z,60.60
2023-01-29T14:04:18.894Z,60.95
2023-01-29T14:06:51.949Z,60.83
2023-01-29T14:09:37.164Z,60.91
2023-01-29T14:12:21.367Z,60.33
2023-01-29T14:14:48.127Z,60.93
2023-01-29T14:17:19.882Z,60.88
2023-01-29T14:19:52.510Z,61.02
2023-01-29T14:22:27.123Z,60.81
2023-01-29T14:25:03.935Z,61.05
2023-01-29T14:27:31.866Z,60.77
2023-01-29T14:30:07.702Z,60.84
2023-01-29T14:32:34.613Z,60.71
2023-01-29T14:35:18.794Z,60.82
2023-01-29T14:37:50.424Z,60.85
2023-01-29T14:40:22.964Z,60.85
2023-01-29T14:43:05.868Z,60.69
2023-01-29T14:45:38.902Z,60.89
2023-01-29T14:48:11.566Z,60.65
2023-01-29T14:50:43.929Z,60.93
2023-01-29T14:53:43.801Z,61.02
2023-01-29T14:56:17.469Z,60.86
2023-01-29T14:58:47.936Z,60.92
2023-01-29T15:01:33.399Z,61.08
2023-01-29T15:04:12.971Z,61.05
2023-01-29T15:06:47.122Z,61.18
2023-01-29T15:09:32.765Z,61.28
2023-01-29T15:12:24.360Z,61.20
2023-01-29T15:15:07.110Z,61.29
2023-01-29T15:17:49.530Z,61.14
2023-01-29T15:20:34.625Z,61.29
2023-01-29T15:23:06.068Z,61.41
2023-01-29T15:25:47.568Z,61.31
2023-01-29T15:28:15.757Z,61.33
2023-01-29T15:30:45.014Z,61.16
2023-01-29T15:33:14.947Z,61.43
2023-01-29T15:35:43.250Z,60.86
2023-01-29T15:38:21.666Z,61.09
2023-01-29T15:41:03.465Z,61.36
2023-01-29T15:43:36.087Z,61.29
2023-01-29T15:46:30.647Z,61.27
2023-01-29T15:49:00.789Z,61.22
2023-01-29T15:51:28.949Z,61.22
2023-01-29T15:54:02.459Z,61.33
2023-01-29T15:56:42.168Z,61.15
2023-01-29T15:59:23.061Z,61.04
2023-01-29T16:01:50.000Z,61.10
2023-01-29T16:04:26.885Z,61.23
2023-01-29T16:06:56.020Z,61.07
2023-01-29T16:09:25.819Z,61.17
2023-01-29T16:11:54.771Z,61.18
2023-01-29T16:14:25.500Z,60.97
2023-01-29T16:16:53.559Z,61.32
2023-01-29T16:19:24.497Z,61.01
2023-01-29T16:22:03.915Z,61.01
2023-01-29T16:24:35.023Z,61.06
2023-01-29T16:27:14.009Z,61.12
2023-01-29T16:29:41.396Z,61.16
2023-01-29T16:32:09.921Z,60.89
2023-01-29T16:34:45.619Z,60.82
2023-01-29T16:37:25.272Z,60.57
2023-01-29T16:39:52.908Z,60.56
2023-01-29T16:42:28.940Z,60.73
2023-01-29T16:45:04.769Z,60.62
2023-01-29T16:47:44.062Z,60.69
2023-01-29T16:50:38.283Z,60.66
2023-01-29T16:53:21.804Z,60.54
2023-01-29T16:55:50.159Z,60.90
2023-01-29T16:58:20.994Z,60.69
2023-01-29T17:00:56.178Z,60.92
2023-01-29T17:03:26.723Z,60.83
2023-01-29T17:05:54.182Z,60.72
2023-01-29T17:08:28.551Z,60.75
2023-01-29T17:10:55.515Z,60.37
2023-01-29T17:13:36.002Z,60.98
2023-01-29T17:16:15.843Z,60.58
2023-01-29T17:18:42.761Z,60.56
2023-01-29T17:21:09.859Z,60.72
2023-01-29T17:23:36.772Z,60.65
2023-01-29T17:26:06.869Z,60.64
2023-01-29T17:28:34.162Z,60.38
2023-01-29T17:31:06.500Z,60.21
2023-01-29T17:33:41.128Z,60.20
2023-01-29T17:36:16.466Z,59.96
2023-01-29T17:38:43.425Z,60.11
2023-01-29T17:41:28.582Z,60.03
2023-01-29T17:43:55.568Z,60.06
2023-01-29T17:46:22.739Z,59.91
2023-01-29T17:48:49.786Z,60.06
2023-01-29T17:51:18.101Z,59.98
2023-01-29T17:53:46.859Z,60.02
2023-01-29T17:56:24.055Z,60.00
2023-01-29T17:58:50.972Z,60.08
2023-01-29T18:01:17.903Z,60.40
2023-01-29T18:03:44.901Z,60.06
2023-01-29T18:06:29.448Z,60.10
2023-01-29T18:08:56.834Z,60.10
2023-01-29T18:11:23.775Z,59.97
2023-01-29T18:13:51.554Z,60.04
2023-01-29T18:16:18.604Z,59.70
2023-01-29T18:18:45.601Z,59.88
2023-01-29T18:21:12.495Z,60.06
2023-01-29T18:23:39.467Z,60.40
2023-01-29T18:26:07.532Z,60.03
2023-01-29T18:28:34.414Z,59.90
2023-01-29T18:31:02.618Z,59.93
2023-01-29T18:33:29.660Z,60.25
2023-01-29T18:35:56.646Z,60.07
2023-01-29T18:38:24.076Z,59.94
2023-01-29T18:40:50.980Z,60.26
2023-01-29T18:43:17.845Z,60.21
2023-01-29T18:45:44.847Z,59.89
2023-01-29T18:48:14.139Z,60.12
2023-01-29T18:50:41.082Z,60.21
2023-01-29T18:53:08.018Z,59.99
2023-01-29T18:55:34.927Z,60.11
2023-01-29T18:58:26.011Z,59.91
2023-01-29T19:00:48.712Z,60.17
2023-01-29T19:03:15.667Z,60.04
2023-01-29T19:05:42.616Z,60.17
2023-01-29T19:08:09.846Z,60.04
2023-01-29T19:10:37.174Z,60.40
2023-01-29T19:13:05.860Z,60.41
2023-01-29T19:15:34.023Z,60.32
2023-01-29T19:18:01.059Z,59.84
2023-01-29T19:20:27.988Z,60.22
2023-01-29T19:22:54.893Z,60.59
2023-01-29T19:25:21.978Z,60.64
2023-01-29T19:27:48.885Z,60.84
2023-01-29T19:30:16.035Z,60.96
2023-01-29T19:32:43.004Z,61.02
2023-01-29T19:35:09.898Z,60.84
2023-01-29T19:37:36.789Z,61.12
2023-01-29T19:40:04.166Z,60.95
2023-01-29T19:42:31.303Z,61.01
2023-01-29T19:44:58.197Z,61.23
2023-01-29T19:47:25.094Z,61.24
2023-01-29T19:49:52.015Z,61.22
2023-01-29T19:52:49.869Z,61.27
2023-01-29T19:55:20.092Z,61.25
2023-01-29T19:57:47.409Z,61.56
2023-01-29T20:00:17.438Z,61.39
2023-01-29T20:02:44.387Z,61.43
2023-01-29T20:05:12.981Z,61.61
2023-01-29T20:07:42.258Z,61.42
2023-01-29T20:10:16.841Z,61.67
2023-01-29T20:12:45.108Z,61.43
2023-01-29T20:15:13.762Z,61.74
2023-01-29T20:17:40.883Z,61.39
2023-01-29T20:20:08.995Z,61.56
2023-01-29T20:22:36.004Z,61.42
2023-01-29T20:25:02.984Z,61.51
2023-01-29T20:27:29.884Z,61.73
2023-01-29T20:29:57.376Z,61.74
2023-01-29T20:32:24.515Z,61.71
2023-01-29T20:34:52.259Z,61.55
2023-01-29T20:37:19.664Z,61.47
2023-01-29T20:39:47.201Z,61.63
2023-01-29T20:42:14.424Z,61.68
2023-01-29T20:44:42.060Z,61.99
2023-01-29T20:47:09.166Z,61.78
2023-01-29T20:49:36.166Z,61.63
2023-01-29T20:52:03.134Z,61.87
2023-01-29T20:54:33.045Z,61.75
2023-01-29T20:57:00.111Z,61.69
2023-01-29T20:59:28.887Z,61.86
2023-01-29T21:01:56.017Z,61.67
2023-01-29T21:04:23.156Z,61.65
2023-01-29T21:06:50.124Z,61.68
2023-01-29T21:09:16.998Z,61.46
2023-01-29T21:11:44.994Z,61.49
2023-01-29T21:14:11.923Z,61.13
2023-01-29T21:16:38.848Z,61.78
2023-01-29T21:19:05.791Z,61.63
2023-01-29T21:21:32.716Z,61.49
2023-01-29T21:23:59.597Z,61.57
2023-01-29T21:26:26.535Z,61.50
2023-01-29T21:28:53.462Z,61.68
2023-01-29T21:31:20.434Z,61.42
2023-01-29T21:33:47.378Z,61.57
2023-01-29T21:36:14.270Z,61.46
2023-01-29T21:38:41.157Z,61.36
2023-01-29T21:41:10.012Z,61.47
2023-01-29T21:43:37.578Z,61.22
2023-01-29T21:46:11.664Z,61.13
2023-01-29T21:48:39.678Z,61.40
2023-01-29T21:51:07.517Z,61.24
2023-01-29T21:53:34.850Z,61.29
2023-01-29T21:56:03.440Z,61.11
2023-01-29T21:58:30.556Z,61.24
2023-01-29T22:01:23.024Z,60.76
2023-01-29T22:03:47.096Z,61.07
2023-01-29T22:06:14.713Z,60.83
2023-01-29T22:08:41.589Z,60.76
2023-01-29T22:11:09.110Z,60.74
2023-01-29T22:13:36.211Z,60.76
2023-01-29T22:16:03.085Z,60.59
2023-01-29T22:18:29.952Z,60.69
2023-01-29T22:20:57.539Z,60.75
2023-01-29T22:23:24.967Z,60.89
2023-01-29T22:25:51.858Z,60.55
2023-01-29T22:28:19.055Z,61.03
2023-01-29T22:30:46.196Z,60.78
2023-01-29T22:33:13.216Z,60.67
2023-01-29T22:35:40.147Z,60.61
2023-01-29T22:38:07.385Z,60.82
2023-01-29T22:40:35.095Z,61.07
2023-01-29T22:43:01.981Z,61.04
2023-01-29T22:45:28.872Z,60.92
2023-01-29T22:47:55.854Z,61.05
2023-01-29T22:50:22.722Z,60.75
2023-01-29T22:52:54.008Z,60.85
2023-01-29T22:55:21.267Z,60.92
2023-01-29T22:57:50.976Z,61.05
2023-01-29T23:00:18.731Z,61.06
2023-01-29T23:02:50.177Z,60.82
2023-01-29T23:05:18.238Z,61.45
2023-01-29T23:07:45.488Z,60.96
2023-01-29T23:10:15.162Z,61.10
2023-01-29T23:12:42.892Z,61.00
2023-01-29T23:15:10.010Z,61.09
2023-01-29T23:17:36.923Z,61.50
2023-01-29T23:20:04.005Z,61.28
2023-01-29T23:22:30.988Z,61.35
2023-01-29T23:24:57.841Z,61.25
2023-01-29T23:27:24.793Z,61.27
2023-01-29T23:29:51.665Z,61.33
2023-01-29T23:32:20.524Z,61.74
2023-01-29T23:34:47.435Z,61.27
2023-01-29T23:37:14.520Z,61.47
2023-01-29T23:39:41.428Z,61.58
2023-01-29T23:42:08.313Z,61.54
2023-01-29T23:44:35.809Z,61.85
2023-01-29T23:47:02.751Z,62.28
2023-01-29T23:49:29.709Z,62.52
2023-01-29T23:51:56.640Z,62.42
2023-01-29T23:54:23.605Z,63.00
2023-01-29T23:56:50.525Z,63.05
2023-01-29T23:59:17.996Z,62.89
